PACV METAR and TAF weather

Enter ICAO airport designator
Station Type Date Time Source
PACV METAR 2021/03/08 02:53 UTC NOAA

PACV 080253Z 32008KT 10SM FEW200 04/M15 A3008 RMK AO2 SLP185 T00391150 51006


Station Type Date Time Source
PACV Decoded METAR 2021/03/08 02:53 UTC NOAA

MERLE K. SMITH AIRPORT, AK, United States (PACV) 60-30N 145-29W 13M
Mar 07, 2021 - 09:53 PM EST / 2021.03.08 0253 UTC
Wind: from the NW (320 degrees) at 9 MPH (8 KT):0
Visibility: 10 mile(s):0
Sky conditions: mostly clear
Temperature: 39.0 F (3.9 C)
Dew Point: 5.0 F (-15.0 C)
Relative Humidity: 23%
Pressure (altimeter): 30.08 in. Hg (1018 hPa)
Pressure tendency: 0.02 inches (0.6 hPa) higher than three hours ago
ob: PACV 080253Z 32008KT 10SM FEW200 04/M15 A3008 RMK AO2 SLP185 T00391150 51006
cycle: 3

Station Type Date Time Source
PACV TAF 2021/03/07 18:39 UTC NOAA

TAF PACV 071736Z 0718/0818 VRB04KT P6SM SKC

Example: see airport list